• Join FlightAware (Why Join?)
  • Login
  • US Flag 
Rudolph Flight #1: Arrived! 
05:08AM EST


 

Airport Tracker/Info


-or-


 

Live Flight TrackerFlight Track Log ✈ RPA3392 ✈ 25-Jun-2013 ✈ KDCA - KALB

Flight Track Log - Related Links

Times and Time Zones

All times are in EDT time to prevent confusion due to time zone crossing. See the RPA3392 flight status page for this flight to view local times or setup timezone preferences in your user account.

Time Position Orientation Groundspeed Altitude Reporting Facility
EDT Latitude Longitude Course Direction KTS MPH feet Rate Location/Type
10:21PM 38.7733 -77.0350 83° East 166 191 2,600  Level Washington Center
10:22PM 38.7514 -76.9544 109° East 194 223 4,500 2,340 Climbing Washington Center
10:23PM 38.9782 -76.6602 57° Northeast  Level FlightAware Approximate
10:24PM 39.0271 -76.5355 67° East  Level FlightAware Approximate
10:24PM 38.8147 -76.8944 36° Northeast 168 193 7,400  Level Washington Center
10:24PM 38.8797 -76.8369 35° Northeast 221 254 10,400 2,100 Climbing Washington Center
10:25PM 39.0764 -76.4106 61° Northeast  Level FlightAware Approximate
10:25PM 38.9308 -76.7417 55° Northeast 265 305 11,600  Level Washington Center
10:26PM 39.1167 -76.2837 90° East  Level FlightAware Approximate
10:26PM 38.9797 -76.6278 61° Northeast 305 351 13,700  Level Washington Center
10:27PM 39.1556 -76.1607 83° East  Level FlightAware Approximate
10:27PM 39.0308 -76.5108 61° Northeast 341 392 15,700  Level Washington Center
10:29PM 39.0794 -76.3911 62° Northeast 366 421 17,300 1,380 Climbing Washington Center
10:29PM 39.1367 -76.2606 60° Northeast 378 435 18,500 1,380 Climbing Washington Center
10:30PM 39.1686 -76.1136 74° East 384 442 20,100 1,320 Climbing Washington Center
10:31PM 39.1836 -75.9664 82° East 396 456 21,200 1,140 Climbing Washington Center
10:33PM 39.2258 -75.8300 68° East 408 470 22,400 1,080 Climbing Washington Center
10:33PM 39.3092 -75.7258 44° Northeast 399 459 23,400 900 Climbing Washington Center
10:34PM 39.3947 -75.6183 44° Northeast 409 471 24,300 780 Climbing Washington Center
10:36PM 39.4822 -75.5056 45° Northeast 421 484 25,100 840 Climbing Washington Center
10:36PM 39.5697 -75.3922 45° Northeast 431 496 26,000 900 Climbing Washington Center
10:37PM 39.6569 -75.2789 45° Northeast 436 502 26,900 840 Climbing Washington Center
10:39PM 39.7664 -75.1217 48° Northeast 461 531 28,000 900 Climbing New York Center
10:40PM 39.8544 -74.9919 48° Northeast 466 536 29,000 480 Climbing New York Center
10:41PM 39.9464 -74.8731 45° Northeast 466 536 29,000  Level New York Center
10:42PM 40.0397 -74.7619 42° Northeast 461 531 29,000  Level New York Center
10:43PM 40.1267 -74.6583 42° Northeast 456 525 29,000  Level New York Center
10:44PM 40.2128 -74.5108 53° Northeast 462 532 29,000  Level New York Center
10:45PM 40.2839 -74.3650 57° Northeast 468 539 29,000  Level New York Center
10:46PM 40.3508 -74.2161 59° Northeast 468 539 29,000  Level New York Center
10:47PM 40.3992 -74.0578 68° East 463 533 29,000 -360 Level New York Center
10:48PM 40.4553 -73.9078 64° Northeast 463 533 28,300 -1,020 Descending New York Center
10:50PM 40.7158 -73.6969 32° Northeast 429 494 25,500 -1,140 Descending Boston Center
10:51PM 40.8103 -73.6192 32° Northeast 434 499 24,500 -780 Descending Boston Center
10:52PM 40.9133 -73.5358 31° Northeast 436 502 24,000 -300 Descending Boston Center
10:53PM 41.0267 -73.4525 29° Northeast 431 496 24,000  Level Boston Center
10:54PM 41.1433 -73.4378 North 414 476 24,000 -660 Level Boston Center
10:55PM 41.2558 -73.4478 356° North 406 467 22,700 -1,440 Descending Boston Center
10:56PM 41.3725 -73.4608 355° North 406 467 21,200 -1,380 Descending Boston Center
10:57PM 41.4828 -73.4653 358° North 401 461 20,000 -600 Descending Boston Center
10:58PM 41.5892 -73.4808 354° North 394 453 20,000  Level Boston Center
10:59PM 41.6994 -73.4911 356° North 394 453 20,000 -840 Level Boston Center
11:00PM 41.8097 -73.4983 357° North 394 453 18,400 -1,740 Descending Boston Center
11:01PM 41.9036 -73.5056 357° North 385 443 16,600 -1,980 Descending Boston Center
11:02PM 42.0161 -73.5158 356° North 375 432 14,500 -1,980 Descending Boston Center
11:03PM 42.1244 -73.5206 358° North 347 399 12,500 -1,800 Descending Boston Center
11:04PM 42.2056 -73.5358 352° North 344 396 10,900 -1,260 Descending Boston Center
11:05PM 42.2908 -73.5572 349° North 328 377 10,200 -1,200 Descending Boston Center
11:06PM 42.3656 -73.5725 351° North 284 327 8,500 -1,680 Descending Boston Center
11:07PM 42.4383 -73.5908 349° North 268 308 6,900 -1,800 Descending Boston Center
11:08PM 42.5131 -73.6089 350° North 268 308 5,000 -1,740 Descending Boston Center
11:09PM 42.5817 -73.6244 351° North 258 297 3,500 -1,020 Descending Boston Center
11:10PM 42.6464 -73.6397 350° North 242 278 3,000 -300 Descending Boston Center
11:11PM 42.7003 -73.6550 348° North 221 254 3,000  Level Boston Center
11:12PM 42.7647 -73.6647 354° North 215 247 3,000 -240 Level Boston Center
11:13PM 42.8333 -73.6831 349° North 191 220 2,500 -540 Descending Boston Center
11:14PM 42.8706 -73.7150 328° Northwest 183 211 1,900 -660 Descending Boston Center